Weather History for KJOT - March, 2014

Change the Weather History Date:

Friday, March 14, 2014

  Actual Average (KLOT) Record (KLOT)
Temperature  
Mean Temperature 44 °F 38 °F  
Max Temperature 53 °F 47 °F 81 °F (2012)
Min Temperature 36 °F 29 °F 8 °F (1993)
Degree Days  
Heating Degree Days 20 27  
Month to date heating degree days 415  
Since 1 July heating degree days 5143  
Cooling Degree Days 0 0  
Month to date cooling degree days 0  
Year to date cooling degree days 0  
Moisture  
Dew Point 32 °F    
Average Humidity 66    
Maximum Humidity 80    
Minimum Humidity 53    
Precipitation  
Precipitation 0.00 in 0.09 in 0.32 in (2007)
Month to date precipitation 1.21  
Year to date precipitation 4.92  
Snow  
Snow 0.00 in 0.20 in 0.20 in (1992)
Month to date snowfall 2.9  
Since 1 July snowfall 30.3  
Snow Depth -    
Sea Level Pressure  
Sea Level Pressure 29.75 in    
Wind  
Wind Speed 11 mph (WSW)    
Max Wind Speed 20 mph    
Max Gust Speed 28 mph    
Visibility 10 miles    
Events      
T = Trace of Precipitation, MM = Missing Value Source: NWS Daily Summary

Daily Weather History Graph

Daily Weather History Graph

Search for Another Location

Airport or City:

Trip Planner

Search our weather history database for the weather conditions in past years. The results will help you decide how hot, cold, wet, or windy it might be!

Date:

Astronomy

Mar. 14, 2014 Rise Set
Actual Time 7:06 AM CDT 6:58 PM CDT
Civil Twilight 6:38 AM CDT 7:25 PM CDT
Nautical Twilight 6:06 AM CDT 7:58 PM CDT
Astronomical Twilight 5:33 AM CDT 8:30 PM CDT
Moon 5:19 PM CDT (3/14) 5:47 AM CDT (3/14)
Length of Visible Light 12h 47m
Length of Day
11h 52m
Waxing Gibbous, 96% of the Moon is Illuminated
Mar 14
Waxing Gibbous
Mar 16
Full
Mar 23
Last Quarter
Mar 30
New
Apr 7
First Quarter

Hourly Weather History & Observations

Time (CDT) Temp. Windchill Dew Point Humidity Pressure Visibility Wind Dir Wind Speed Gust Speed Precip Events Conditions
12:15 AM 39.0 °F 31.0 °F 31.5 °F 74% 29.86 in 10.0 mi SSW 13.8 mph 18.4 mph N/A   Clear
12:35 AM 38.7 °F 31.8 °F 31.1 °F 74% 29.85 in 10.0 mi SSW 10.4 mph 17.3 mph N/A   Clear
12:55 AM 38.7 °F 32.4 °F 31.1 °F 74% 29.85 in 10.0 mi SSW 9.2 mph 18.4 mph N/A   Clear
1:15 AM 38.5 °F 31.1 °F 31.1 °F 75% 29.84 in 10.0 mi SSW 11.5 mph 16.1 mph N/A   Clear
1:35 AM 38.5 °F 31.6 °F 31.1 °F 75% 29.83 in 10.0 mi SSW 10.4 mph 16.1 mph N/A   Clear
1:55 AM 39.0 °F 32.3 °F 31.1 °F 73% 29.83 in 10.0 mi SSW 10.4 mph 16.1 mph N/A   Clear
2:15 AM 38.8 °F 32.1 °F 31.3 °F 74% 29.81 in 10.0 mi SSW 10.4 mph 16.1 mph N/A   Clear
2:35 AM 39.4 °F 32.3 °F 31.6 °F 74% 29.80 in 10.0 mi SSW 11.5 mph 17.3 mph N/A   Clear
2:55 AM 39.2 °F 34.2 °F 32.0 °F 75% 29.79 in 10.0 mi SSW 6.9 mph - N/A   Clear
3:15 AM 38.3 °F 32.5 °F 31.8 °F 77% 29.78 in 10.0 mi SSW 8.1 mph - N/A   Clear
3:35 AM 38.3 °F 31.4 °F 31.8 °F 77% 29.76 in 10.0 mi SSW 10.4 mph - N/A   Clear
3:55 AM 38.3 °F 31.9 °F 31.8 °F 77% 29.76 in 10.0 mi SSW 9.2 mph - N/A   Clear
4:15 AM 38.3 °F 32.5 °F 31.6 °F 77% 29.74 in 10.0 mi SSW 8.1 mph - N/A   Clear
4:35 AM 38.3 °F 31.4 °F 31.1 °F 75% 29.73 in 10.0 mi SSW 10.4 mph 16.1 mph N/A   Clear
4:55 AM 38.3 °F 30.9 °F 30.9 °F 75% 29.73 in 10.0 mi SSW 11.5 mph - N/A   Clear
5:15 AM 38.7 °F 32.4 °F 30.7 °F 73% 29.72 in 10.0 mi SSW 9.2 mph - N/A   Clear
5:35 AM 38.3 °F 31.4 °F 30.4 °F 73% 29.72 in 10.0 mi SSW 10.4 mph - N/A   Clear
5:55 AM 38.5 °F 32.1 °F 30.2 °F 72% 29.71 in 10.0 mi SSW 9.2 mph - N/A   Clear
6:15 AM 38.5 °F 32.1 °F 30.0 °F 72% 29.71 in 10.0 mi SSW 9.2 mph - N/A   Clear
6:35 AM 38.8 °F 33.8 °F 29.7 °F 70% 29.70 in 10.0 mi SSW 6.9 mph - N/A   Clear
6:55 AM 39.6 °F 32.5 °F 29.3 °F 67% 29.69 in 10.0 mi SSW 11.5 mph - N/A   Clear
7:15 AM 39.7 °F 33.2 °F 29.1 °F 66% 29.69 in 10.0 mi SSW 10.4 mph 17.3 mph N/A   Clear
7:35 AM 40.3 °F 34.9 °F 29.1 °F 64% 29.69 in 10.0 mi SSW 8.1 mph - N/A   Clear
7:55 AM 40.3 °F 34.4 °F 28.8 °F 63% 29.68 in 10.0 mi SSW 9.2 mph - N/A   Clear
8:15 AM 41.7 °F 34.8 °F 28.8 °F 60% 29.68 in 10.0 mi SSW 12.7 mph 18.4 mph N/A   Clear
8:35 AM 42.8 °F 36.6 °F 28.6 °F 57% 29.68 in 10.0 mi SSW 11.5 mph 18.4 mph N/A   Clear
8:55 AM 43.5 °F 38.3 °F 28.4 °F 55% 29.67 in 10.0 mi SW 9.2 mph 19.6 mph N/A   Clear
9:15 AM 44.6 °F 38.1 °F 28.6 °F 53% 29.66 in 10.0 mi SSW 13.8 mph 18.4 mph N/A   Clear
9:35 AM 44.6 °F 38.4 °F 28.6 °F 53% 29.65 in 10.0 mi SSW 12.7 mph 23.0 mph N/A   Clear
9:55 AM 44.1 °F 37.7 °F 28.9 °F 55% 29.65 in 10.0 mi SW 12.7 mph 21.9 mph N/A   Clear
10:15 AM 44.6 °F 38.4 °F 29.3 °F 55% 29.65 in 10.0 mi SSW 12.7 mph 26.5 mph N/A   Clear
10:35 AM 45.1 °F 38.4 °F 29.5 °F 54% 29.64 in 10.0 mi SW 15.0 mph 23.0 mph N/A   Clear
10:55 AM 45.0 °F 38.9 °F 30.0 °F 56% 29.64 in 10.0 mi SW 12.7 mph 20.7 mph N/A   Clear
11:15 AM 45.5 °F 39.9 °F 30.4 °F 56% 29.63 in 10.0 mi SW 11.5 mph 23.0 mph N/A   Clear
11:35 AM 46.4 °F 40.7 °F 31.1 °F 55% 29.63 in 10.0 mi SW 12.7 mph 20.7 mph N/A   Clear
11:55 AM 46.9 °F - 31.8 °F 56% 29.63 in 10.0 mi SW 11.5 mph 21.9 mph N/A   Clear
12:15 PM 47.7 °F - 32.0 °F 55% 29.63 in 10.0 mi SW 11.5 mph 18.4 mph N/A   Clear
12:35 PM 49.1 °F - 32.9 °F 54% 29.64 in 10.0 mi WSW 13.8 mph 19.6 mph N/A   Clear
12:55 PM 50.0 °F - 34.2 °F 55% 29.64 in 10.0 mi WSW 11.5 mph 20.7 mph N/A   Clear
1:15 PM 51.1 °F - 34.7 °F 54% 29.64 in 10.0 mi West 13.8 mph 20.7 mph N/A   Clear
1:35 PM 51.4 °F - 35.8 °F 55% 29.64 in 10.0 mi West 13.8 mph 19.6 mph N/A   Clear
1:55 PM 52.0 °F - 36.9 °F 56% 29.64 in 10.0 mi West 13.8 mph 21.9 mph N/A   Clear
2:15 PM 52.3 °F - 35.8 °F 53% 29.65 in 10.0 mi West 17.3 mph 24.2 mph N/A   Clear
2:35 PM 52.5 °F - 35.6 °F 53% 29.66 in 10.0 mi West 11.5 mph 23.0 mph N/A   Clear
2:55 PM 52.9 °F - 36.5 °F 54% 29.66 in 10.0 mi West 15.0 mph 23.0 mph N/A   Clear
3:15 PM 53.1 °F - 36.9 °F 54% 29.68 in 10.0 mi West 11.5 mph 21.9 mph N/A   Clear
3:35 PM 52.5 °F - 36.0 °F 53% 29.69 in 10.0 mi West 19.6 mph 27.6 mph N/A   Clear
3:55 PM 51.4 °F - 35.6 °F 55% 29.70 in 10.0 mi West 16.1 mph 27.6 mph N/A   Clear
4:15 PM 50.4 °F - 35.8 °F 57% 29.71 in 10.0 mi West 17.3 mph 26.5 mph N/A   Clear
4:35 PM 50.0 °F - 35.1 °F 57% 29.72 in 10.0 mi West 16.1 mph 25.3 mph N/A   Clear
4:55 PM 49.3 °F - 35.1 °F 58% 29.73 in 10.0 mi West 16.1 mph 26.5 mph N/A   Clear
5:15 PM 48.2 °F - 34.2 °F 58% 29.75 in 10.0 mi West 18.4 mph 25.3 mph N/A   Clear
5:35 PM 47.7 °F - 33.6 °F 58% 29.77 in 10.0 mi West 17.3 mph 26.5 mph N/A   Clear
5:55 PM 46.9 °F - 33.1 °F 59% 29.78 in 10.0 mi West 15.0 mph 23.0 mph N/A   Clear
6:15 PM 45.7 °F 39.8 °F 32.7 °F 61% 29.79 in 10.0 mi West 12.7 mph 25.3 mph N/A   Clear
6:35 PM 44.1 °F 37.7 °F 32.4 °F 63% 29.81 in 10.0 mi WNW 12.7 mph 18.4 mph N/A   Clear
6:55 PM 42.8 °F 37.5 °F 32.2 °F 66% 29.82 in 10.0 mi WNW 9.2 mph 20.7 mph N/A   Clear
7:15 PM 41.7 °F 37.3 °F 32.2 °F 69% 29.83 in 10.0 mi West 6.9 mph - N/A   Clear
7:35 PM 40.6 °F 36.0 °F 32.0 °F 71% 29.84 in 10.0 mi West 6.9 mph - N/A   Clear
7:55 PM 39.9 °F 35.8 °F 32.0 °F 73% 29.85 in 10.0 mi West 5.8 mph - N/A   Clear
8:15 PM 39.2 °F 35.9 °F 32.2 °F 76% 29.86 in 10.0 mi WNW 4.6 mph - N/A   Clear
8:35 PM 38.8 °F 34.6 °F 32.0 °F 76% 29.86 in 10.0 mi West 5.8 mph - N/A   Clear
8:55 PM 37.9 °F 33.5 °F 32.0 °F 79% 29.86 in 10.0 mi West 5.8 mph - N/A   Clear
9:15 PM 38.3 °F 32.5 °F 32.0 °F 78% 29.87 in 10.0 mi West 8.1 mph - N/A   Clear
9:35 PM 38.5 °F 33.4 °F 31.8 °F 77% 29.87 in 10.0 mi West 6.9 mph - N/A   Clear
9:55 PM 37.9 °F 33.5 °F 31.6 °F 78% 29.88 in 10.0 mi West 5.8 mph - N/A   Clear
10:15 PM 37.4 °F 31.4 °F 31.3 °F 79% 29.88 in 10.0 mi West 8.1 mph - N/A   Clear
10:35 PM 37.8 °F 31.8 °F 31.1 °F 77% 29.88 in 10.0 mi West 8.1 mph - N/A   Clear
10:55 PM 37.2 °F 31.2 °F 31.1 °F 79% 29.89 in 10.0 mi West 8.1 mph - N/A   Clear
11:15 PM 37.0 °F 31.6 °F 30.9 °F 79% 29.89 in 10.0 mi West 6.9 mph - N/A   Clear
11:35 PM 36.7 °F 31.2 °F 30.9 °F 80% 29.88 in 10.0 mi West 6.9 mph - N/A   Clear
11:55 PM 36.9 °F 30.7 °F 30.7 °F 79% 29.89 in 10.0 mi West 8.1 mph - N/A   Clear